Time;durP1;ratioP1;P1;durP2;ratioP2;P2;SDS_P1;SDS_P2;PMS_P1;PMS_P2;Temp;Humidity;BMP_temperature;BMP_pressure;BME280_temperature;BME280_humidity;BME280_pressure;Samples;Min_cycle;Max_cycle;Signal;HPM_P1;HPM_P2
2022/10/08 00:01:25;;;;;;;26.60;16.50;;;14.10;84.80;;;;;;4977481;28;20458;-78
2022/10/08 00:03:55;;;;;;;61.73;18.20;;;14.10;85.00;;;;;;4976117;28;20933;-77
2022/10/08 00:06:27;;;;;;;80.00;20.07;;;14.00;85.10;;;;;;4978423;28;20476;-76
2022/10/08 00:08:57;;;;;;;44.83;17.80;;;13.90;85.10;;;;;;4982402;28;20493;-76
2022/10/08 00:11:27;;;;;;;34.23;17.73;;;13.80;85.20;;;;;;4981588;28;20455;-75
2022/10/08 00:13:55;;;;;;;45.00;19.10;;;13.80;85.40;;;;;;4977277;28;20500;-77
2022/10/08 00:16:25;;;;;;;39.30;18.10;;;13.80;85.50;;;;;;4980907;28;20808;-77
2022/10/08 00:18:55;;;;;;;26.83;18.00;;;13.80;85.50;;;;;;4994568;28;20478;-77
2022/10/08 00:21:26;;;;;;;31.27;18.93;;;13.80;85.60;;;;;;4990523;28;20541;-77
2022/10/08 00:23:55;;;;;;;25.53;16.70;;;13.80;85.90;;;;;;4977225;28;20463;-77
2022/10/08 00:26:25;;;;;;;23.70;17.43;;;13.80;85.80;;;;;;4978733;28;20564;-76
2022/10/08 00:28:54;;;;;;;27.03;17.67;;;13.80;85.90;;;;;;4982875;28;20481;-77
2022/10/08 00:31:25;;;;;;;24.03;15.67;;;13.80;86.00;;;;;;4980822;28;20454;-77
2022/10/08 00:33:55;;;;;;;22.93;16.17;;;13.90;86.10;;;;;;4978154;28;20464;-76
2022/10/08 00:36:24;;;;;;;26.33;16.60;;;13.90;86.20;;;;;;4981521;28;20461;-76
2022/10/08 00:38:56;;;;;;;21.27;15.43;;;14.00;86.10;;;;;;4981378;28;20843;-77
2022/10/08 00:41:27;;;;;;;24.33;14.50;;;14.00;86.10;;;;;;4980996;28;20521;-77
2022/10/08 00:43:56;;;;;;;24.03;15.30;;;14.00;86.10;;;;;;4993550;28;20470;-76
2022/10/08 00:46:28;;;;;;;20.73;14.37;;;14.10;86.20;;;;;;4978542;28;20443;-77
2022/10/08 00:49:06;;;;;;;20.13;13.80;;;14.10;86.20;;;;;;4981074;28;20486;-77
2022/10/08 00:51:34;;;;;;;23.13;14.20;;;14.20;86.20;;;;;;4975535;28;20465;-77
2022/10/08 00:54:05;;;;;;;20.30;14.03;;;14.20;86.00;;;;;;4976691;28;20517;-76
2022/10/08 00:56:37;;;;;;;17.70;12.50;;;14.20;86.00;;;;;;4992811;28;20536;-77
2022/10/08 00:59:05;;;;;;;21.57;13.30;;;14.20;86.00;;;;;;4977063;28;20489;-77
2022/10/08 01:01:34;;;;;;;19.27;14.13;;;14.30;85.90;;;;;;4975431;28;20458;-76
2022/10/08 01:04:06;;;;;;;17.27;13.27;;;14.30;85.90;;;;;;4978447;28;20537;-76
2022/10/08 01:06:43;;;;;;;19.30;14.33;;;14.30;85.90;;;;;;4979750;28;20716;-77
2022/10/08 01:09:15;;;;;;;22.43;13.30;;;14.30;85.90;;;;;;4976761;28;20565;-78
2022/10/08 01:11:52;;;;;;;16.90;13.60;;;14.30;85.90;;;;;;4976712;28;20453;-78
2022/10/08 01:14:38;;;;;;;21.60;13.67;;;14.30;85.80;;;;;;4981775;28;20484;-76
2022/10/08 01:17:12;;;;;;;17.83;12.97;;;14.30;85.90;;;;;;4981012;28;20457;-77
2022/10/08 01:20:11;;;;;;;16.10;12.87;;;14.30;85.90;;;;;;4979788;28;20745;-77
2022/10/08 01:22:54;;;;;;;20.90;14.70;;;14.30;86.00;;;;;;4951628;28;20998;-78
2022/10/08 01:25:34;;;;;;;18.80;14.40;;;14.30;86.00;;;;;;4978138;28;20458;-78
2022/10/08 01:28:11;;;;;;;21.20;15.03;;;14.40;86.10;;;;;;4981065;28;21155;-76
2022/10/08 01:30:46;;;;;;;20.67;13.93;;;14.40;86.00;;;;;;4979297;28;20448;-75
2022/10/08 01:33:19;;;;;;;22.47;15.37;;;14.40;86.00;;;;;;4998268;28;20461;-78
2022/10/08 01:35:52;;;;;;;18.57;13.77;;;14.40;86.00;;;;;;4977899;28;20466;-78
2022/10/08 01:38:23;;;;;;;20.33;14.30;;;14.50;86.00;;;;;;4977145;28;20509;-76
2022/10/08 01:40:57;;;;;;;21.60;14.93;;;14.50;86.00;;;;;;4975824;28;20458;-78
2022/10/08 01:43:30;;;;;;;20.40;13.50;;;14.50;86.00;;;;;;4978975;28;20465;-76
2022/10/08 01:46:03;;;;;;;25.30;14.27;;;14.50;86.10;;;;;;4979666;28;20466;-76
2022/10/08 01:48:34;;;;;;;20.73;14.10;;;14.50;86.10;;;;;;4978050;28;20487;-78
2022/10/08 01:51:06;;;;;;;18.20;14.00;;;14.50;86.10;;;;;;4977191;28;20461;-77
2022/10/08 01:53:40;;;;;;;21.07;15.50;;;14.60;86.10;;;;;;4977044;28;20451;-78
2022/10/08 01:56:13;;;;;;;21.00;15.43;;;14.60;86.00;;;;;;4978870;28;20528;-76
2022/10/08 01:58:48;;;;;;;21.83;16.17;;;14.60;86.10;;;;;;4976576;28;20483;-78
2022/10/08 02:01:22;;;;;;;24.70;16.03;;;14.60;86.10;;;;;;4976988;28;20476;-77
2022/10/08 02:06:42;;;;;;;20.90;15.93;;;14.60;86.00;;;;;;4995445;28;20512;-76
2022/10/08 02:09:11;;;;;;;23.67;15.70;;;14.60;86.10;;;;;;4981538;28;20482;-77
2022/10/08 02:11:39;;;;;;;25.37;15.90;;;14.60;86.10;;;;;;4979998;28;21128;-76
2022/10/08 02:14:08;;;;;;;22.87;15.93;;;14.60;86.10;;;;;;4984945;28;20496;-77
2022/10/08 02:16:42;;;;;;;21.97;16.33;;;14.60;86.20;;;;;;4986983;28;20497;-77
2022/10/08 02:19:16;;;;;;;24.13;15.50;;;14.60;86.30;;;;;;4985582;28;20540;-78
2022/10/08 02:21:45;;;;;;;23.10;17.00;;;14.60;86.30;;;;;;4987284;28;20920;-76
2022/10/08 02:24:18;;;;;;;23.37;15.47;;;14.60;86.30;;;;;;4984442;28;20461;-77
2022/10/08 02:26:49;;;;;;;21.00;15.87;;;14.60;86.40;;;;;;4980203;28;20959;-76
2022/10/08 02:29:23;;;;;;;22.63;16.60;;;14.60;86.40;;;;;;4977859;28;20926;-77
2022/10/08 02:31:55;;;;;;;21.77;16.37;;;14.60;86.40;;;;;;4978628;28;20995;-77
2022/10/08 02:34:29;;;;;;;27.07;16.33;;;14.70;86.40;;;;;;4981176;28;20463;-77
2022/10/08 02:37:03;;;;;;;22.50;15.30;;;14.70;86.40;;;;;;4980448;28;20445;-78
2022/10/08 02:39:35;;;;;;;23.80;15.97;;;14.70;86.30;;;;;;4976428;28;20517;-77
2022/10/08 02:42:09;;;;;;;20.40;16.23;;;14.70;86.30;;;;;;4977657;28;20468;-77
2022/10/08 02:44:41;;;;;;;22.83;15.43;;;14.70;86.30;;;;;;4981906;28;20617;-78
2022/10/08 02:47:14;;;;;;;25.53;17.40;;;14.70;86.30;;;;;;4978414;28;20525;-77
2022/10/08 02:49:47;;;;;;;22.50;16.67;;;14.80;86.30;;;;;;4990783;28;20505;-78
2022/10/08 02:52:17;;;;;;;23.37;17.07;;;14.80;86.30;;;;;;4977214;28;20472;-77
2022/10/08 02:54:46;;;;;;;22.33;16.17;;;14.80;86.30;;;;;;4979947;28;20465;-76
2022/10/08 02:57:21;;;;;;;23.73;17.87;;;14.80;86.30;;;;;;4979046;28;21038;-77
2022/10/08 02:59:51;;;;;;;21.50;15.63;;;14.80;86.30;;;;;;4977212;28;20521;-76
2022/10/08 03:02:26;;;;;;;22.00;16.80;;;14.80;86.30;;;;;;5000070;28;20494;-78
2022/10/08 03:05:00;;;;;;;25.30;16.30;;;14.80;86.30;;;;;;4983769;28;20959;-77
2022/10/08 03:07:30;;;;;;;22.17;16.33;;;14.80;86.30;;;;;;4981494;28;20533;-78
2022/10/08 03:09:59;;;;;;;25.07;16.47;;;14.80;86.30;;;;;;4983239;28;20485;-78
2022/10/08 03:12:27;;;;;;;22.40;15.97;;;14.80;86.30;;;;;;4981268;28;20532;-77
2022/10/08 03:14:56;;;;;;;26.50;17.33;;;14.80;86.30;;;;;;4980728;28;20465;-76
2022/10/08 03:17:29;;;;;;;22.27;16.40;;;14.80;86.40;;;;;;4982899;28;20508;-77
2022/10/08 03:19:57;;;;;;;24.17;15.70;;;14.80;86.30;;;;;;4980298;28;20467;-78
2022/10/08 03:22:27;;;;;;;23.73;16.80;;;14.80;86.40;;;;;;4978014;28;20454;-77
2022/10/08 03:24:55;;;;;;;26.10;17.30;;;14.80;86.40;;;;;;4976022;28;20464;-78
2022/10/08 03:27:24;;;;;;;21.80;16.77;;;14.90;86.40;;;;;;4992307;28;20466;-77
2022/10/08 03:29:56;;;;;;;20.77;16.60;;;14.90;86.40;;;;;;4991016;28;20505;-77
2022/10/08 03:32:26;;;;;;;22.93;16.37;;;14.90;86.40;;;;;;4979642;28;20454;-78
2022/10/08 03:34:54;;;;;;;27.10;17.20;;;14.90;86.30;;;;;;4983493;28;20465;-77
2022/10/08 03:37:22;;;;;;;25.00;17.10;;;14.90;86.30;;;;;;4996840;28;20462;-77
2022/10/08 03:39:50;;;;;;;23.77;15.87;;;14.90;86.30;;;;;;4979509;28;20493;-77
2022/10/08 03:42:18;;;;;;;21.37;15.93;;;14.90;86.30;;;;;;4993325;28;20494;-76
2022/10/08 03:44:46;;;;;;;21.47;16.80;;;14.90;86.40;;;;;;4983579;28;20461;-76
2022/10/08 03:47:14;;;;;;;23.90;15.90;;;14.90;86.50;;;;;;4983738;28;21191;-77
2022/10/08 03:49:43;;;;;;;24.80;16.60;;;14.90;86.40;;;;;;4980556;28;20576;-76
2022/10/08 03:52:11;;;;;;;25.50;17.77;;;14.80;86.50;;;;;;4983131;28;20454;-78
2022/10/08 03:54:39;;;;;;;24.93;17.03;;;14.80;86.50;;;;;;4981580;28;21287;-78
2022/10/08 03:57:07;;;;;;;22.70;16.10;;;14.90;86.60;;;;;;4984029;28;20530;-77
2022/10/08 03:59:35;;;;;;;22.90;15.67;;;14.90;86.50;;;;;;4990288;28;20881;-77
2022/10/08 04:02:03;;;;;;;24.27;15.50;;;14.90;86.50;;;;;;4978637;28;20462;-77
2022/10/08 04:04:31;;;;;;;26.00;16.70;;;14.90;86.40;;;;;;4979071;28;20958;-77
2022/10/08 04:07:00;;;;;;;20.53;15.70;;;14.90;86.40;;;;;;4976443;28;20710;-77
2022/10/08 04:09:28;;;;;;;23.50;16.20;;;14.90;86.40;;;;;;4976914;28;20493;-77
2022/10/08 04:11:56;;;;;;;24.90;15.73;;;14.90;86.40;;;;;;4980948;28;20470;-77
2022/10/08 04:14:24;;;;;;;22.90;16.10;;;14.90;86.40;;;;;;4981152;28;20457;-78
2022/10/08 04:16:54;;;;;;;21.33;15.60;;;14.90;86.30;;;;;;4982429;28;20457;-77
2022/10/08 04:19:22;;;;;;;20.83;15.47;;;14.90;86.30;;;;;;4978542;28;21201;-77
2022/10/08 04:21:49;;;;;;;25.60;15.17;;;14.90;86.30;;;;;;4976583;28;20454;-77
2022/10/08 04:24:19;;;;;;;20.93;15.60;;;14.80;86.30;;;;;;4993721;28;20451;-77
2022/10/08 04:26:47;;;;;;;19.03;14.60;;;14.80;86.30;;;;;;4980574;28;20889;-77
2022/10/08 04:29:15;;;;;;;22.70;16.20;;;14.80;86.30;;;;;;4980295;28;20498;-77
2022/10/08 04:31:43;;;;;;;24.60;17.87;;;14.80;86.30;;;;;;4975295;28;20484;-77
2022/10/08 04:34:11;;;;;;;21.50;16.70;;;14.80;86.20;;;;;;4981465;28;20461;-77
2022/10/08 04:36:39;;;;;;;25.37;16.90;;;14.70;86.10;;;;;;4980481;28;20461;-77
2022/10/08 04:39:07;;;;;;;20.93;16.27;;;14.70;86.30;;;;;;4977173;28;20503;-77
2022/10/08 04:41:36;;;;;;;25.00;17.20;;;14.70;86.30;;;;;;4979135;28;20952;-77
2022/10/08 04:44:04;;;;;;;22.87;15.27;;;14.70;86.30;;;;;;4978770;28;20458;-77
2022/10/08 04:46:32;;;;;;;20.07;14.50;;;14.70;86.40;;;;;;4981434;28;20461;-77
2022/10/08 04:49:00;;;;;;;21.10;14.57;;;14.70;86.40;;;;;;4979141;28;20482;-77
2022/10/08 04:51:28;;;;;;;26.40;14.70;;;14.70;86.40;;;;;;4980591;28;20489;-77
2022/10/08 04:53:57;;;;;;;18.30;13.93;;;14.70;86.30;;;;;;4979397;28;20497;-77
2022/10/08 04:56:28;;;;;;;19.43;14.03;;;14.70;86.30;;;;;;4981225;28;20481;-77
2022/10/08 04:58:58;;;;;;;23.10;13.87;;;14.70;86.30;;;;;;4994478;28;20529;-76
2022/10/08 05:01:27;;;;;;;19.73;15.00;;;14.70;86.20;;;;;;4983954;28;20457;-77
2022/10/08 05:03:58;;;;;;;22.00;14.10;;;14.70;86.20;;;;;;4981624;28;20505;-76
2022/10/08 05:06:29;;;;;;;28.90;14.10;;;14.60;86.20;;;;;;4980322;28;20457;-76
2022/10/08 05:09:01;;;;;;;25.40;13.67;;;14.60;86.20;;;;;;4978968;28;20561;-76
2022/10/08 05:11:30;;;;;;;27.50;15.37;;;14.60;86.10;;;;;;4980614;28;20485;-76
2022/10/08 05:14:00;;;;;;;18.03;13.30;;;14.60;86.00;;;;;;4995328;28;20454;-77
2022/10/08 05:16:28;;;;;;;19.63;12.90;;;14.50;86.00;;;;;;4991721;28;20996;-77
2022/10/08 05:18:56;;;;;;;20.50;12.43;;;14.50;86.10;;;;;;4971867;28;20489;-76
2022/10/08 05:21:26;;;;;;;21.70;15.00;;;14.50;85.80;;;;;;4977999;28;20879;-76
2022/10/08 05:23:55;;;;;;;21.77;14.17;;;14.40;85.80;;;;;;4974917;28;20553;-77
2022/10/08 05:26:25;;;;;;;16.97;13.43;;;14.30;85.90;;;;;;4979346;28;20463;-76
2022/10/08 05:29:14;;;;;;;18.67;13.30;;;14.30;85.90;;;;;;4982197;28;20909;-76
2022/10/08 05:31:42;;;;;;;21.67;12.93;;;14.20;85.90;;;;;;4977955;28;20565;-78
2022/10/08 05:34:11;;;;;;;17.37;12.70;;;14.20;86.00;;;;;;4993013;28;20527;-77
2022/10/08 05:36:39;;;;;;;22.03;12.63;;;14.20;86.00;;;;;;4979517;28;20458;-76
2022/10/08 05:39:07;;;;;;;21.00;10.90;;;14.20;86.00;;;;;;4983221;28;20512;-76
2022/10/08 05:41:36;;;;;;;17.30;11.47;;;14.20;85.90;;;;;;4991897;28;20454;-77
2022/10/08 05:44:05;;;;;;;17.30;10.20;;;14.20;85.90;;;;;;4979617;28;20453;-77
2022/10/08 05:46:36;;;;;;;21.73;10.87;;;14.20;85.80;;;;;;4980028;28;20465;-76
2022/10/08 05:49:06;;;;;;;14.37;10.03;;;14.20;85.90;;;;;;4979452;28;20520;-77
2022/10/08 05:51:35;;;;;;;13.60;10.00;;;14.10;85.90;;;;;;4977656;28;20565;-76
2022/10/08 05:54:03;;;;;;;14.50;10.73;;;14.10;85.80;;;;;;4978981;28;21057;-78
2022/10/08 05:56:31;;;;;;;12.40;9.17;;;14.10;85.80;;;;;;4975243;28;20454;-76
2022/10/08 05:58:59;;;;;;;16.63;10.00;;;14.10;85.70;;;;;;4976331;28;21255;-76
2022/10/08 06:01:29;;;;;;;11.93;8.60;;;14.10;85.70;;;;;;4977395;28;20457;-76
2022/10/08 06:04:00;;;;;;;10.60;8.50;;;14.00;85.60;;;;;;4979020;28;20588;-78
2022/10/08 06:06:35;;;;;;;12.13;8.97;;;14.00;85.70;;;;;;4976360;28;20517;-77
2022/10/08 06:09:04;;;;;;;16.07;9.73;;;14.00;85.70;;;;;;4977052;28;20493;-77
2022/10/08 06:11:35;;;;;;;16.63;11.00;;;14.00;85.60;;;;;;4979297;28;20474;-77
2022/10/08 06:14:04;;;;;;;15.20;10.50;;;14.00;85.60;;;;;;4976535;28;20481;-77
2022/10/08 06:16:33;;;;;;;16.10;10.73;;;14.00;85.70;;;;;;4975549;28;20458;-77
2022/10/08 06:19:03;;;;;;;19.63;11.40;;;14.10;85.70;;;;;;4967535;28;20480;-77
2022/10/08 06:21:32;;;;;;;17.30;10.40;;;14.10;85.80;;;;;;4967911;28;20462;-77
2022/10/08 06:24:01;;;;;;;19.43;10.50;;;14.10;85.80;;;;;;4969273;28;20454;-77
2022/10/08 06:26:32;;;;;;;19.37;10.70;;;14.10;85.80;;;;;;4971421;28;20461;-77
2022/10/08 06:29:05;;;;;;;15.30;10.47;;;14.10;85.80;;;;;;4970928;28;20568;-76
2022/10/08 06:31:33;;;;;;;17.57;10.53;;;14.20;85.70;;;;;;4972251;28;20488;-75
2022/10/08 06:34:03;;;;;;;22.37;9.33;;;14.20;85.60;;;;;;4976357;28;20465;-75
2022/10/08 06:36:33;;;;;;;17.40;10.30;;;14.30;85.60;;;;;;4976517;28;20494;-76
2022/10/08 06:39:03;;;;;;;14.87;9.57;;;14.30;85.60;;;;;;4971659;28;20512;-76
2022/10/08 06:41:33;;;;;;;14.87;8.30;;;14.30;85.60;;;;;;4977429;28;20490;-76
2022/10/08 06:44:01;;;;;;;12.80;8.37;;;14.30;85.60;;;;;;4981042;28;20450;-76
2022/10/08 06:46:31;;;;;;;14.70;5.93;;;14.30;85.50;;;;;;4978635;28;20450;-76
2022/10/08 06:49:00;;;;;;;13.40;5.63;;;14.40;85.50;;;;;;4979248;28;20911;-77
2022/10/08 06:51:30;;;;;;;12.07;5.47;;;14.40;85.50;;;;;;4979734;28;20520;-78
2022/10/08 06:53:59;;;;;;;8.00;4.97;;;14.40;85.40;;;;;;4993438;28;20465;-76
2022/10/08 06:56:35;;;;;;;10.60;5.13;;;14.50;85.40;;;;;;4981795;28;20465;-76
2022/10/08 06:59:04;;;;;;;11.20;5.70;;;14.50;85.40;;;;;;4975768;28;20594;-76
2022/10/08 07:01:33;;;;;;;9.60;5.40;;;14.50;85.30;;;;;;4982173;28;21302;-77
2022/10/08 07:04:02;;;;;;;15.07;5.57;;;14.50;85.30;;;;;;4981234;28;20562;-77
2022/10/08 07:06:31;;;;;;;16.80;5.97;;;14.60;85.20;;;;;;4977448;28;20469;-77
2022/10/08 07:09:01;;;;;;;16.40;5.17;;;14.60;85.10;;;;;;4979103;28;20465;-76
2022/10/08 07:11:31;;;;;;;11.93;4.73;;;14.60;85.00;;;;;;4975521;28;20544;-77
2022/10/08 07:14:00;;;;;;;12.73;4.73;;;14.60;85.10;;;;;;4976509;28;20505;-77
2022/10/08 07:16:28;;;;;;;12.40;4.70;;;14.70;85.10;;;;;;4976121;28;20524;-77
2022/10/08 07:18:57;;;;;;;9.70;4.37;;;14.70;85.00;;;;;;4983255;28;20492;-77
2022/10/08 07:21:26;;;;;;;11.50;4.50;;;14.70;84.90;;;;;;4980310;28;20556;-77
2022/10/08 07:23:57;;;;;;;10.13;4.60;;;14.70;84.70;;;;;;4980424;28;20948;-77
2022/10/08 07:26:28;;;;;;;11.00;4.90;;;14.70;84.60;;;;;;4978813;28;20454;-75
2022/10/08 07:28:58;;;;;;;10.40;5.00;;;14.70;84.50;;;;;;4979369;28;20483;-77
2022/10/08 07:31:28;;;;;;;10.30;4.17;;;14.70;84.50;;;;;;4976434;28;20506;-76
2022/10/08 07:33:57;;;;;;;14.07;4.60;;;14.70;84.40;;;;;;4979434;28;20442;-75
2022/10/08 07:36:26;;;;;;;12.33;4.40;;;14.70;84.30;;;;;;4995260;28;20488;-76
2022/10/08 07:38:56;;;;;;;13.50;4.23;;;14.70;84.30;;;;;;4980523;28;21040;-78
2022/10/08 07:41:25;;;;;;;9.07;4.60;;;14.70;84.20;;;;;;4974654;28;20586;-75
2022/10/08 07:43:55;;;;;;;8.80;3.83;;;14.70;84.20;;;;;;4980202;28;20949;-75
2022/10/08 07:46:23;;;;;;;11.63;4.67;;;14.80;84.00;;;;;;4979846;28;20470;-78
2022/10/08 07:48:52;;;;;;;9.87;4.10;;;14.80;84.00;;;;;;4985236;28;20485;-77
2022/10/08 07:51:20;;;;;;;11.70;5.30;;;14.80;83.80;;;;;;4982771;28;21002;-75
2022/10/08 07:53:49;;;;;;;10.37;4.20;;;14.80;83.80;;;;;;4978982;28;20489;-75
2022/10/08 07:56:20;;;;;;;9.50;4.63;;;14.80;83.80;;;;;;4976950;28;20488;-77
2022/10/08 07:58:49;;;;;;;13.40;6.03;;;14.80;83.90;;;;;;4972753;28;20478;-76
2022/10/08 08:01:18;;;;;;;9.43;5.80;;;14.90;84.00;;;;;;4993043;28;20520;-76
2022/10/08 08:03:53;;;;;;;14.90;5.30;;;14.90;84.00;;;;;;4975580;28;20446;-77
2022/10/08 08:06:21;;;;;;;9.50;4.90;;;15.00;83.80;;;;;;4972055;28;20462;-77
2022/10/08 08:08:50;;;;;;;12.03;5.13;;;15.00;83.60;;;;;;4979520;28;20497;-76
2022/10/08 08:11:20;;;;;;;13.03;4.57;;;15.10;83.50;;;;;;4978695;28;20498;-77
2022/10/08 08:13:49;;;;;;;11.30;5.03;;;15.10;83.50;;;;;;4995454;28;20494;-76
2022/10/08 08:16:19;;;;;;;8.30;3.27;;;15.10;83.50;;;;;;4977671;28;20466;-76
2022/10/08 08:18:49;;;;;;;14.87;3.83;;;15.10;83.40;;;;;;4977442;28;20482;-78
2022/10/08 08:21:19;;;;;;;12.33;3.83;;;15.20;83.50;;;;;;4976771;28;20442;-76
2022/10/08 08:23:50;;;;;;;20.43;4.40;;;15.20;83.00;;;;;;4982000;28;20983;-78
2022/10/08 08:26:21;;;;;;;12.30;4.07;;;15.20;83.00;;;;;;4977564;28;20457;-78
2022/10/08 08:28:51;;;;;;;8.70;3.10;;;15.20;82.90;;;;;;4977776;28;20485;-79
2022/10/08 08:31:22;;;;;;;13.23;4.40;;;15.20;82.80;;;;;;4974592;28;20584;-79
2022/10/08 08:33:52;;;;;;;9.37;3.83;;;15.20;82.70;;;;;;4993351;28;20482;-79
2022/10/08 08:36:24;;;;;;;16.43;3.93;;;15.20;82.70;;;;;;4978718;28;20516;-79
2022/10/08 08:38:52;;;;;;;7.17;3.47;;;15.20;82.60;;;;;;4976743;28;20535;-79
2022/10/08 08:41:37;;;;;;;13.03;3.57;;;15.20;82.50;;;;;;4977677;28;20524;-78
2022/10/08 08:44:11;;;;;;;10.40;3.60;;;15.30;82.40;;;;;;4975158;28;20946;-77
2022/10/08 08:46:46;;;;;;;14.90;3.33;;;15.30;82.40;;;;;;4992761;28;20986;-79
2022/10/08 08:49:19;;;;;;;11.03;3.00;;;15.30;82.20;;;;;;4975719;28;20543;-78
2022/10/08 08:51:47;;;;;;;10.73;3.47;;;15.30;82.30;;;;;;4973637;28;20508;-80
2022/10/08 08:54:15;;;;;;;8.67;3.10;;;15.30;82.20;;;;;;4978339;28;20539;-78
2022/10/08 08:56:45;;;;;;;14.73;2.80;;;15.40;82.10;;;;;;4976316;28;20462;-78
2022/10/08 08:59:28;;;;;;;9.53;3.17;;;15.40;81.90;;;;;;4973641;28;20478;-79
2022/10/08 09:02:00;;;;;;;9.80;2.50;;;15.40;81.60;;;;;;4973732;28;20455;-79
2022/10/08 09:04:36;;;;;;;12.60;3.47;;;15.40;81.60;;;;;;4976145;28;20461;-79
2022/10/08 09:07:14;;;;;;;8.27;2.50;;;15.40;81.40;;;;;;4977544;28;20567;-79
2022/10/08 09:09:47;;;;;;;8.13;3.00;;;15.50;81.10;;;;;;4977465;28;20539;-78
2022/10/08 09:12:20;;;;;;;14.53;2.50;;;15.50;81.10;;;;;;4975428;28;20447;-78
2022/10/08 09:14:53;;;;;;;6.90;1.93;;;15.50;81.10;;;;;;4973836;28;20463;-78
2022/10/08 09:17:28;;;;;;;8.93;2.17;;;15.40;80.80;;;;;;4977267;28;20520;-79
2022/10/08 09:19:56;;;;;;;5.27;1.77;;;15.40;80.00;;;;;;4978003;28;20457;-79
2022/10/08 09:22:27;;;;;;;8.70;2.67;;;15.40;80.60;;;;;;4976078;28;20878;-79
2022/10/08 09:25:06;;;;;;;6.13;1.93;;;15.50;80.50;;;;;;4981182;28;20487;-80
2022/10/08 09:27:46;;;;;;;11.90;3.37;;;15.50;80.10;;;;;;4979725;28;20454;-79
2022/10/08 09:30:43;;;;;;;8.50;2.13;;;15.50;79.90;;;;;;4979948;28;20453;-78
2022/10/08 09:33:28;;;;;;;7.33;2.30;;;15.50;79.80;;;;;;4949487;28;20478;-79
2022/10/08 09:35:56;;;;;;;13.10;1.93;;;15.50;79.50;;;;;;4978561;28;20454;-80
2022/10/08 09:38:26;;;;;;;6.53;1.50;;;15.50;79.50;;;;;;4973554;28;21358;-78
2022/10/08 09:41:02;;;;;;;6.60;2.07;;;15.60;79.30;;;;;;4975506;28;21019;-78
2022/10/08 09:43:33;;;;;;;9.83;1.60;;;15.60;79.00;;;;;;4975404;28;20465;-80
2022/10/08 09:46:04;;;;;;;6.73;1.97;;;15.60;78.40;;;;;;4977495;28;21027;-79
2022/10/08 09:48:32;;;;;;;9.33;2.10;;;15.70;78.80;;;;;;4976479;28;21006;-79
2022/10/08 09:51:02;;;;;;;5.90;2.37;;;15.70;78.60;;;;;;4992224;28;20524;-79
2022/10/08 09:53:39;;;;;;;8.43;1.90;;;15.70;78.40;;;;;;4975051;28;20492;-79
2022/10/08 09:56:08;;;;;;;10.97;2.20;;;15.80;78.10;;;;;;4980209;28;20449;-79
2022/10/08 09:58:48;;;;;;;8.63;2.00;;;15.80;78.10;;;;;;4980033;28;21055;-79
2022/10/08 10:01:17;;;;;;;7.43;2.03;;;15.80;78.00;;;;;;4977557;28;20453;-79
2022/10/08 10:03:50;;;;;;;6.37;1.70;;;15.80;77.50;;;;;;4974876;28;20462;-79
2022/10/08 10:06:29;;;;;;;6.27;1.60;;;15.90;77.60;;;;;;4975423;28;20446;-79
2022/10/08 10:09:02;;;;;;;5.37;1.53;;;15.90;77.10;;;;;;4976272;28;20490;-77
2022/10/08 10:11:36;;;;;;;7.03;1.70;;;15.90;77.00;;;;;;4976009;28;20978;-80
2022/10/08 10:14:15;;;;;;;7.77;1.43;;;15.90;77.20;;;;;;4980326;28;20489;-77
2022/10/08 10:16:46;;;;;;;5.90;1.43;;;16.00;77.00;;;;;;4978503;28;21132;-79
2022/10/08 10:19:18;;;;;;;11.33;1.97;;;16.10;76.70;;;;;;4977682;28;20526;-77
2022/10/08 10:21:54;;;;;;;5.23;1.60;;;16.10;76.60;;;;;;4975248;28;20517;-78
2022/10/08 10:24:38;;;;;;;5.83;1.50;;;16.20;76.50;;;;;;4973094;28;20442;-81
2022/10/08 10:27:10;;;;;;;5.60;1.70;;;16.20;76.20;;;;;;4977442;28;21021;-77
2022/10/08 10:29:53;;;;;;;7.83;1.57;;;16.30;76.00;;;;;;4973698;28;20524;-78
2022/10/08 10:32:26;;;;;;;8.10;1.93;;;16.30;74.50;;;;;;4975987;28;20461;-79
2022/10/08 10:35:05;;;;;;;8.83;1.70;;;16.20;75.20;;;;;;4992123;28;21068;-78
2022/10/08 10:37:40;;;;;;;10.80;1.80;;;16.20;75.20;;;;;;4979404;28;20531;-78
2022/10/08 10:40:23;;;;;;;6.37;1.70;;;16.20;75.10;;;;;;4975422;28;20469;-79
2022/10/08 10:43:00;;;;;;;7.00;1.93;;;16.20;74.90;;;;;;4974772;28;20517;-79
2022/10/08 10:45:33;;;;;;;5.20;1.47;;;16.30;74.60;;;;;;4975346;28;20497;-79
2022/10/08 10:48:03;;;;;;;7.60;1.63;;;16.20;74.40;;;;;;4975447;28;20572;-79
2022/10/08 10:50:37;;;;;;;7.63;1.73;;;16.30;74.50;;;;;;4974053;28;21147;-79
2022/10/08 10:53:18;;;;;;;9.93;2.50;;;16.30;74.20;;;;;;4975651;28;20488;-79
2022/10/08 10:55:53;;;;;;;8.53;1.87;;;16.30;73.20;;;;;;4979066;28;20820;-78
2022/10/08 10:58:31;;;;;;;6.83;1.67;;;16.30;73.70;;;;;;4973140;28;20561;-78
2022/10/08 11:01:09;;;;;;;8.40;1.40;;;16.30;73.90;;;;;;4991811;28;20857;-78
2022/10/08 11:03:43;;;;;;;5.17;1.30;;;16.40;73.90;;;;;;4974952;28;20460;-78
2022/10/08 11:06:44;;;;;;;5.33;2.00;;;16.40;74.00;;;;;;4975125;28;20458;-79
2022/10/08 11:09:18;;;;;;;7.60;1.73;;;16.50;73.90;;;;;;4975773;28;20489;-79
2022/10/08 11:11:51;;;;;;;8.70;2.10;;;16.60;73.60;;;;;;4973308;28;20446;-80
2022/10/08 11:14:37;;;;;;;6.13;1.67;;;16.70;73.60;;;;;;4978061;28;20479;-79
2022/10/08 11:17:20;;;;;;;10.13;1.60;;;16.80;73.50;;;;;;4978328;28;20450;-79
2022/10/08 11:20:01;;;;;;;5.17;1.70;;;16.80;72.90;;;;;;4999390;28;20473;-80
2022/10/08 11:22:34;;;;;;;4.87;1.47;;;16.80;72.90;;;;;;4998274;28;20896;-79
2022/10/08 11:25:18;;;;;;;8.43;1.50;;;16.90;72.90;;;;;;4980828;28;20485;-79
2022/10/08 11:27:59;;;;;;;8.30;1.60;;;16.90;72.60;;;;;;4978757;28;20485;-78
2022/10/08 11:30:37;;;;;;;7.73;1.50;;;16.90;72.50;;;;;;4978762;28;20459;-79
2022/10/08 11:33:13;;;;;;;8.40;1.80;;;16.90;72.40;;;;;;4979926;28;20507;-79
2022/10/08 11:35:48;;;;;;;4.70;1.00;;;16.90;72.10;;;;;;4980320;28;20461;-79
2022/10/08 11:38:24;;;;;;;6.03;1.43;;;16.90;71.90;;;;;;4982340;28;20516;-79
2022/10/08 11:40:56;;;;;;;6.20;1.13;;;16.80;72.10;;;;;;4979172;28;20523;-79
2022/10/08 11:43:29;;;;;;;7.03;1.23;;;16.80;72.40;;;;;;4979651;28;20544;-78
2022/10/08 11:46:27;;;;;;;7.07;1.57;;;16.90;72.20;;;;;;4978127;28;22357;-79
2022/10/08 11:48:59;;;;;;;5.63;1.50;;;16.90;72.00;;;;;;4993157;28;20605;-78
2022/10/08 11:51:30;;;;;;;11.10;2.40;;;16.80;72.00;;;;;;4974873;28;20501;-78
2022/10/08 11:54:23;;;;;;;7.30;1.20;;;16.80;72.10;;;;;;4976031;28;20557;-78
2022/10/08 11:57:10;;;;;;;6.00;1.70;;;16.80;72.20;;;;;;4975010;28;20508;-78
2022/10/08 11:59:41;;;;;;;5.70;1.40;;;16.80;72.30;;;;;;4977114;28;20486;-78
2022/10/08 12:02:23;;;;;;;6.13;2.00;;;16.80;72.30;;;;;;4996223;28;20516;-78
2022/10/08 12:04:54;;;;;;;8.57;1.57;;;16.80;72.40;;;;;;4975398;28;20462;-78
2022/10/08 12:07:27;;;;;;;6.57;1.57;;;16.70;72.30;;;;;;4977110;28;20706;-77
2022/10/08 12:10:21;;;;;;;6.70;1.57;;;16.70;72.40;;;;;;4975056;28;20447;-79
2022/10/08 12:13:23;;;;;;;9.77;1.87;;;16.70;72.40;;;;;;4972349;28;20536;-79
2022/10/08 12:16:03;;;;;;;7.03;2.00;;;16.70;72.70;;;;;;4976303;28;20504;-78
2022/10/08 12:18:50;;;;;;;17.33;2.17;;;16.60;72.80;;;;;;4993351;28;20537;-80
2022/10/08 12:21:50;;;;;;;6.30;1.80;;;16.70;72.90;;;;;;4975924;28;20968;-80
2022/10/08 12:24:51;;;;;;;9.77;2.20;;;16.70;73.30;;;;;;4923669;29;20456;-80
2022/10/08 12:27:38;;;;;;;11.70;2.20;;;16.70;73.10;;;;;;4973940;28;20475;-77
2022/10/08 12:30:10;;;;;;;8.03;2.40;;;16.60;73.40;;;;;;4976781;28;20497;-80
2022/10/08 12:32:57;;;;;;;8.80;2.07;;;16.50;73.50;;;;;;4980439;28;20539;-79
2022/10/08 12:35:29;;;;;;;7.33;2.30;;;16.50;73.50;;;;;;4970925;28;20482;-77
2022/10/08 12:38:21;;;;;;;8.77;2.37;;;16.50;73.80;;;;;;4975883;28;21062;-80
2022/10/08 12:40:58;;;;;;;6.40;2.10;;;16.50;74.00;;;;;;4974067;28;21035;-80
2022/10/08 12:43:34;;;;;;;10.03;2.60;;;16.50;74.10;;;;;;4975958;28;20456;-78
2022/10/08 12:46:16;;;;;;;12.93;2.13;;;16.40;74.10;;;;;;4995659;28;20481;-80
2022/10/08 12:48:50;;;;;;;6.33;2.10;;;16.40;74.20;;;;;;4978278;28;20506;-78
2022/10/08 12:51:27;;;;;;;12.93;2.97;;;16.40;74.30;;;;;;4974472;28;20527;-78
2022/10/08 12:53:57;;;;;;;18.27;3.07;;;16.40;74.40;;;;;;4993144;28;20466;-80
2022/10/08 12:56:29;;;;;;;16.17;2.23;;;16.40;74.50;;;;;;4974922;28;20912;-78
2022/10/08 12:59:01;;;;;;;21.83;2.73;;;16.40;74.60;;;;;;4978513;28;20501;-78
2022/10/08 13:01:30;;;;;;;8.50;2.20;;;16.40;74.70;;;;;;4972265;28;20916;-77
2022/10/08 13:04:08;;;;;;;9.30;2.27;;;16.40;74.50;;;;;;4974102;28;20450;-80
2022/10/08 13:06:36;;;;;;;8.47;2.17;;;16.40;74.70;;;;;;4974354;28;20473;-78